createdAt,value
2018-10-09T00:00:33.509Z,8.66
2018-10-09T00:03:03.341Z,8.78
2018-10-09T00:05:33.250Z,8.69
2018-10-09T00:08:03.174Z,8.68
2018-10-09T00:10:33.476Z,8.65
2018-10-09T00:13:03.402Z,8.79
2018-10-09T00:15:34.294Z,9.13
2018-10-09T00:18:04.295Z,9.26
2018-10-09T00:20:34.021Z,9.00
2018-10-09T00:23:04.744Z,8.88
2018-10-09T00:25:34.718Z,9.01
2018-10-09T00:28:05.514Z,8.91
2018-10-09T00:30:35.341Z,8.86
2018-10-09T00:33:05.106Z,8.78
2018-10-09T00:35:34.823Z,8.69
2018-10-09T00:38:04.997Z,8.72
2018-10-09T00:40:35.029Z,8.62
2018-10-09T00:43:04.855Z,8.78
2018-10-09T00:45:34.586Z,8.91
2018-10-09T00:48:04.484Z,8.89
2018-10-09T00:50:34.614Z,8.98
2018-10-09T00:53:04.611Z,9.01
2018-10-09T00:55:34.465Z,9.12
2018-10-09T00:58:05.180Z,8.95
2018-10-09T01:00:35.275Z,8.98
2018-10-09T01:03:05.116Z,9.02
2018-10-09T01:05:35.050Z,9.06
2018-10-09T01:08:04.914Z,8.82
2018-10-09T01:10:35.354Z,8.66
2018-10-09T01:13:05.647Z,8.63
2018-10-09T01:15:35.475Z,8.72
2018-10-09T01:18:06.343Z,8.97
2018-10-09T01:20:36.354Z,8.84
2018-10-09T01:23:07.029Z,8.75
2018-10-09T01:25:37.297Z,8.69
2018-10-09T01:28:07.811Z,8.71
2018-10-09T01:30:37.750Z,8.74
2018-10-09T01:33:07.990Z,8.67
2018-10-09T01:35:37.765Z,8.63
2018-10-09T01:38:07.685Z,8.46
2018-10-09T01:40:37.440Z,8.39
2018-10-09T01:43:08.098Z,8.29
2018-10-09T01:45:38.050Z,8.44
2018-10-09T01:48:08.069Z,8.52
2018-10-09T01:50:37.773Z,8.48
2018-10-09T01:53:07.813Z,8.40
2018-10-09T01:55:37.627Z,8.42
2018-10-09T01:58:07.524Z,8.39
2018-10-09T02:00:37.527Z,8.30
2018-10-09T02:03:07.886Z,8.25
2018-10-09T02:05:37.704Z,8.21
2018-10-09T02:08:07.804Z,8.14
2018-10-09T02:10:38.205Z,8.09
2018-10-09T02:13:07.963Z,8.11
2018-10-09T02:15:37.939Z,8.08
2018-10-09T02:18:07.990Z,8.01
2018-10-09T02:20:38.800Z,7.97
2018-10-09T02:23:08.649Z,7.92
2018-10-09T02:25:38.415Z,7.92
2018-10-09T02:28:08.868Z,8.08
2018-10-09T02:30:38.739Z,7.97
2018-10-09T02:33:09.279Z,7.97
2018-10-09T02:35:39.237Z,7.97
2018-10-09T02:38:09.291Z,7.94
2018-10-09T02:40:39.723Z,7.92
2018-10-09T02:43:09.482Z,7.95
2018-10-09T02:45:39.181Z,7.91
2018-10-09T02:48:09.154Z,7.91
2018-10-09T02:50:39.630Z,7.86
2018-10-09T02:53:09.500Z,7.85
2018-10-09T02:55:39.228Z,7.78
2018-10-09T02:58:09.558Z,7.78
2018-10-09T03:00:40.012Z,7.78
2018-10-09T03:03:09.728Z,7.76
2018-10-09T03:05:39.542Z,7.75
2018-10-09T03:08:09.320Z,7.77
2018-10-09T03:10:39.143Z,7.73
2018-10-09T03:13:09.194Z,7.71
2018-10-09T03:15:38.850Z,7.77
2018-10-09T03:18:08.663Z,7.80
2018-10-09T03:20:38.484Z,7.70
2018-10-09T03:23:08.290Z,7.64
2018-10-09T03:25:38.013Z,7.58
2018-10-09T03:28:07.949Z,7.56
2018-10-09T03:30:37.669Z,7.57
2018-10-09T03:33:07.497Z,7.56
2018-10-09T03:35:37.230Z,7.60
2018-10-09T03:38:07.143Z,7.54
2018-10-09T03:40:37.017Z,7.52
2018-10-09T03:43:06.872Z,7.54
2018-10-09T03:45:36.604Z,7.55
2018-10-09T03:48:07.112Z,7.52
2018-10-09T03:50:36.887Z,7.58
2018-10-09T03:53:07.548Z,7.58
2018-10-09T03:55:37.291Z,7.57
2018-10-09T03:58:07.383Z,7.66
2018-10-09T04:00:37.202Z,7.69
2018-10-09T04:03:07.025Z,7.76
2018-10-09T04:05:36.788Z,7.79
2018-10-09T04:08:06.727Z,7.82
2018-10-09T04:10:36.662Z,7.87
2018-10-09T04:13:07.313Z,7.85
2018-10-09T04:15:37.169Z,7.76
2018-10-09T04:18:07.828Z,7.71
2018-10-09T04:20:37.666Z,8.01
2018-10-09T04:23:08.079Z,7.78
2018-10-09T04:25:37.948Z,7.68
2018-10-09T04:28:07.896Z,7.56
2018-10-09T04:30:37.737Z,7.48
2018-10-09T04:33:07.667Z,7.37
2018-10-09T04:35:38.400Z,7.36
2018-10-09T04:38:08.870Z,7.31
2018-10-09T04:40:38.579Z,7.22
2018-10-09T04:43:08.553Z,7.14
2018-10-09T04:45:38.933Z,7.10
2018-10-09T04:48:08.742Z,7.11
2018-10-09T04:50:38.576Z,7.13
2018-10-09T04:53:09.165Z,7.10
2018-10-09T04:55:39.738Z,7.05
2018-10-09T04:58:09.638Z,7.02
2018-10-09T05:00:39.513Z,7.04
2018-10-09T05:03:10.088Z,7.05
2018-10-09T05:05:39.801Z,7.02
2018-10-09T05:08:09.710Z,7.01
2018-10-09T05:10:39.580Z,7.02
2018-10-09T05:13:09.243Z,7.05
2018-10-09T05:15:39.062Z,7.00
2018-10-09T05:18:08.794Z,7.01
2018-10-09T05:20:38.588Z,7.00
2018-10-09T05:23:08.343Z,6.97
2018-10-09T05:25:38.103Z,6.99
2018-10-09T05:28:08.993Z,6.95
2018-10-09T05:30:38.668Z,6.92
2018-10-09T05:33:08.482Z,6.90
2018-10-09T05:35:38.396Z,6.88
2018-10-09T05:38:08.271Z,6.89
2018-10-09T05:40:38.304Z,6.88
2018-10-09T05:43:08.933Z,6.83
2018-10-09T05:45:38.763Z,6.87
2018-10-09T05:48:09.777Z,6.88
2018-10-09T05:50:39.940Z,6.91
2018-10-09T05:53:09.756Z,6.92
2018-10-09T05:55:39.535Z,6.96
2018-10-09T05:58:09.479Z,6.99
2018-10-09T06:00:39.873Z,7.06
2018-10-09T06:03:09.827Z,7.14
2018-10-09T06:05:40.228Z,7.27
2018-10-09T06:08:10.184Z,7.36
2018-10-09T06:10:40.843Z,7.45
2018-10-09T06:13:10.777Z,7.60
2018-10-09T06:15:41.063Z,7.74
2018-10-09T06:18:11.086Z,7.88
2018-10-09T06:20:41.253Z,7.97
2018-10-09T06:23:11.827Z,8.15
2018-10-09T06:25:41.697Z,8.29
2018-10-09T06:28:11.893Z,8.44
2018-10-09T06:30:42.333Z,8.56
2018-10-09T06:33:12.897Z,8.68
2018-10-09T06:35:42.913Z,8.81
2018-10-09T06:38:13.473Z,8.82
2018-10-09T06:40:46.846Z,8.77
2018-10-09T06:43:16.873Z,8.97
2018-10-09T06:45:46.626Z,8.91
2018-10-09T06:48:17.206Z,9.12
2018-10-09T06:50:47.552Z,9.20
2018-10-09T06:53:17.346Z,9.11
2018-10-09T06:55:47.957Z,9.05
2018-10-09T06:58:18.094Z,9.26
2018-10-09T07:00:47.876Z,9.06
2018-10-09T07:03:17.600Z,9.43
2018-10-09T07:05:47.403Z,9.67
2018-10-09T07:08:17.830Z,9.59
2018-10-09T07:10:48.320Z,9.77
2018-10-09T07:13:19.976Z,9.83
2018-10-09T07:15:49.853Z,9.95
2018-10-09T07:18:19.658Z,10.00
2018-10-09T07:20:49.671Z,10.02
2018-10-09T07:23:20.258Z,10.04
2018-10-09T07:25:52.447Z,9.95
2018-10-09T07:28:23.321Z,10.09
2018-10-09T07:30:53.481Z,9.97
2018-10-09T07:33:23.540Z,10.18
2018-10-09T07:35:53.549Z,10.15
2018-10-09T07:38:23.596Z,10.19
2018-10-09T07:40:53.400Z,10.18
2018-10-09T07:43:23.193Z,10.13
2018-10-09T07:45:53.897Z,10.14
2018-10-09T07:48:23.936Z,9.94
2018-10-09T07:50:54.450Z,10.33
2018-10-09T07:53:24.452Z,10.33
2018-10-09T07:55:54.611Z,10.56
2018-10-09T07:58:24.843Z,10.39
2018-10-09T08:00:54.851Z,10.97
2018-10-09T08:03:25.208Z,11.00
2018-10-09T08:05:55.303Z,10.82
2018-10-09T08:08:25.466Z,11.09
2018-10-09T08:10:55.439Z,11.55
2018-10-09T08:13:25.269Z,11.55
2018-10-09T08:15:55.136Z,11.82
2018-10-09T08:18:25.051Z,11.68
2018-10-09T08:20:55.641Z,12.16
2018-10-09T08:23:25.751Z,12.25
2018-10-09T08:25:57.105Z,12.32
2018-10-09T08:28:27.118Z,12.33
2018-10-09T08:30:56.921Z,12.31
2018-10-09T08:33:26.836Z,12.27
2018-10-09T08:35:56.773Z,12.22
2018-10-09T08:38:26.901Z,12.37
2018-10-09T08:40:56.742Z,12.45
2018-10-09T08:43:26.742Z,12.31
2018-10-09T08:45:56.566Z,12.53
2018-10-09T08:48:26.722Z,12.54
2018-10-09T08:50:57.203Z,12.68
2018-10-09T08:53:28.463Z,12.88
2018-10-09T08:55:58.330Z,12.89
2018-10-09T08:58:28.141Z,12.64
2018-10-09T09:00:58.058Z,12.88
2018-10-09T09:03:28.331Z,13.01
2018-10-09T09:05:58.209Z,13.18
2018-10-09T09:08:28.100Z,13.38
2018-10-09T09:10:57.921Z,13.47
2018-10-09T09:13:27.792Z,13.69
2018-10-09T09:15:58.124Z,13.83
2018-10-09T09:18:28.227Z,13.83
2018-10-09T09:20:58.459Z,13.80
2018-10-09T09:23:28.473Z,13.96
2018-10-09T09:25:58.304Z,14.21
2018-10-09T09:28:29.074Z,14.14
2018-10-09T09:30:59.243Z,14.36
2018-10-09T09:33:29.266Z,14.50
2018-10-09T09:35:59.417Z,14.83
2018-10-09T09:38:29.461Z,14.90
2018-10-09T09:41:00.193Z,14.83
2018-10-09T09:43:30.205Z,14.84
2018-10-09T09:46:00.346Z,14.86
2018-10-09T09:48:30.848Z,15.06
2018-10-09T09:51:01.037Z,15.18
2018-10-09T09:53:30.993Z,15.41
2018-10-09T09:56:01.012Z,15.47
2018-10-09T09:58:31.203Z,15.61
2018-10-09T10:01:06.186Z,15.61
2018-10-09T10:03:36.838Z,15.79
2018-10-09T10:06:07.062Z,16.01
2018-10-09T10:08:37.340Z,16.17
2018-10-09T10:11:14.004Z,16.19
2018-10-09T10:13:44.149Z,16.12
2018-10-09T10:16:14.352Z,16.34
2018-10-09T10:18:44.492Z,16.55
2018-10-09T10:21:14.949Z,16.59
2018-10-09T10:23:44.766Z,16.57
2018-10-09T10:26:16.170Z,16.45
2018-10-09T10:28:46.116Z,16.56
2018-10-09T10:31:18.585Z,16.67
2018-10-09T10:33:48.739Z,16.81
2018-10-09T10:36:18.914Z,16.74
2018-10-09T10:38:49.135Z,17.14
2018-10-09T10:41:19.210Z,17.09
2018-10-09T10:43:49.207Z,16.81
2018-10-09T10:46:19.714Z,17.36
2018-10-09T10:48:59.993Z,17.46
2018-10-09T10:51:29.846Z,17.39
2018-10-09T10:53:59.648Z,17.41
2018-10-09T10:56:29.503Z,17.20
2018-10-09T10:58:59.408Z,17.70
2018-10-09T11:01:29.301Z,17.89
2018-10-09T11:03:59.708Z,18.11
2018-10-09T11:06:29.488Z,17.97
2018-10-09T11:08:59.381Z,18.31
2018-10-09T11:11:30.486Z,18.18
2018-10-09T11:14:00.610Z,18.35
2018-10-09T11:16:30.555Z,17.85
2018-10-09T11:19:00.391Z,18.08
2018-10-09T11:21:30.314Z,18.37
2018-10-09T11:24:00.147Z,18.53
2018-10-09T11:26:29.900Z,18.56
2018-10-09T11:29:00.570Z,18.52
2018-10-09T11:31:30.661Z,18.78
2018-10-09T11:34:00.472Z,18.44
2018-10-09T11:36:30.434Z,18.64
2018-10-09T11:39:00.659Z,18.87
2018-10-09T11:41:30.639Z,19.09
2018-10-09T11:44:00.970Z,18.84
2018-10-09T11:46:30.780Z,18.85
2018-10-09T11:49:00.625Z,18.60
2018-10-09T11:51:30.592Z,18.79
2018-10-09T11:54:00.449Z,18.58
2018-10-09T11:56:30.301Z,18.78
2018-10-09T11:59:00.137Z,18.99
2018-10-09T12:01:30.015Z,18.94
2018-10-09T12:03:59.904Z,18.97
2018-10-09T12:06:29.806Z,19.01
2018-10-09T12:08:59.651Z,19.02
2018-10-09T12:11:29.630Z,19.18
2018-10-09T12:13:59.549Z,19.16
2018-10-09T12:16:29.425Z,19.08
2018-10-09T12:18:59.241Z,19.01
2018-10-09T12:21:29.294Z,18.94
2018-10-09T12:23:59.225Z,18.91
2018-10-09T12:26:29.267Z,19.01
2018-10-09T12:28:59.290Z,19.09
2018-10-09T12:31:29.235Z,18.88
2018-10-09T12:33:59.978Z,19.08
2018-10-09T12:36:29.846Z,18.98
2018-10-09T12:39:00.640Z,19.23
2018-10-09T12:41:30.350Z,19.07
2018-10-09T12:44:00.401Z,19.08
2018-10-09T12:46:31.206Z,19.10
2018-10-09T12:49:00.972Z,19.11
2018-10-09T12:51:30.878Z,19.05
2018-10-09T12:54:01.109Z,18.76
2018-10-09T12:56:31.048Z,18.41
2018-10-09T12:59:01.159Z,18.70
2018-10-09T13:01:31.140Z,18.41
2018-10-09T13:04:01.078Z,18.58
2018-10-09T13:06:31.738Z,18.67
2018-10-09T13:09:01.613Z,18.49
2018-10-09T13:11:31.475Z,18.42
2018-10-09T13:14:01.395Z,18.46
2018-10-09T13:16:31.303Z,18.30
2018-10-09T13:19:01.332Z,18.50
2018-10-09T13:21:31.383Z,18.52
2018-10-09T13:24:01.056Z,18.40
2018-10-09T13:26:30.870Z,18.40
2018-10-09T13:29:00.617Z,18.22
2018-10-09T13:31:30.782Z,18.28
2018-10-09T13:34:00.683Z,18.46
2018-10-09T13:36:30.548Z,18.40
2018-10-09T13:39:00.474Z,18.50
2018-10-09T13:41:30.312Z,18.42
2018-10-09T13:44:00.811Z,18.36
2018-10-09T13:46:30.634Z,18.44
2018-10-09T13:49:00.560Z,18.24
2018-10-09T13:51:30.344Z,18.44
2018-10-09T13:54:00.074Z,18.43
2018-10-09T13:56:29.981Z,18.40
2018-10-09T13:58:59.934Z,18.19
2018-10-09T14:01:29.763Z,18.21
2018-10-09T14:03:59.640Z,18.35
2018-10-09T14:06:29.510Z,18.30
2018-10-09T14:08:59.346Z,18.38
2018-10-09T17:05:26.078Z,14.91
2018-10-09T17:07:55.973Z,14.84
2018-10-09T17:10:25.857Z,14.65
2018-10-09T17:12:55.804Z,14.62
2018-10-09T17:15:25.715Z,14.56
2018-10-09T17:17:55.677Z,14.50
2018-10-09T17:20:25.492Z,14.49
2018-10-09T17:22:55.217Z,14.37
2018-10-09T17:25:25.066Z,14.28
2018-10-09T17:27:54.888Z,14.25
2018-10-09T17:30:24.759Z,14.20
2018-10-09T17:32:54.565Z,14.44
2018-10-09T17:35:32.187Z,14.23
2018-10-09T17:38:02.270Z,14.15
2018-10-09T17:40:32.160Z,14.08
2018-10-09T17:43:02.522Z,13.92
2018-10-09T17:45:32.552Z,13.81
2018-10-09T17:48:02.933Z,13.73
2018-10-09T17:50:33.332Z,13.87
2018-10-09T17:53:03.935Z,13.77
2018-10-09T17:55:34.018Z,13.88
2018-10-09T17:58:03.902Z,13.73
2018-10-09T18:00:33.928Z,13.71
2018-10-09T18:03:04.041Z,13.62
2018-10-09T18:05:34.440Z,13.64
2018-10-09T18:08:04.491Z,13.52
2018-10-09T18:10:34.569Z,13.41
2018-10-09T18:13:04.978Z,13.34
2018-10-09T18:15:36.021Z,13.36
2018-10-09T18:18:07.047Z,13.22
2018-10-09T18:20:37.596Z,13.28
2018-10-09T18:23:07.880Z,13.23
2018-10-09T18:25:37.978Z,13.18
2018-10-09T18:28:08.653Z,13.12
2018-10-09T18:30:38.713Z,13.20
2018-10-09T18:33:08.862Z,13.10
2018-10-09T18:35:39.069Z,13.03
2018-10-09T18:38:09.200Z,12.98
2018-10-09T18:40:39.406Z,12.97
2018-10-09T18:43:09.487Z,12.86
2018-10-09T18:45:39.738Z,12.84
2018-10-09T18:48:10.370Z,12.85
2018-10-09T18:50:41.019Z,12.91
2018-10-09T18:53:11.344Z,12.82
2018-10-09T18:55:41.948Z,12.73
2018-10-09T18:58:12.435Z,12.71
2018-10-09T19:03:23.727Z,12.65
2018-10-09T19:05:53.964Z,12.68
2018-10-09T19:08:24.178Z,12.65
2018-10-09T19:10:54.680Z,12.86
2018-10-09T19:13:24.811Z,12.73
2018-10-09T19:15:55.035Z,12.71
2018-10-09T19:18:24.977Z,12.61
2018-10-09T19:20:55.128Z,12.57
2018-10-09T19:23:25.219Z,12.57
2018-10-09T19:25:55.284Z,12.73
2018-10-09T19:28:25.694Z,12.71
2018-10-09T19:30:56.194Z,12.72
2018-10-09T19:33:26.492Z,12.69
2018-10-09T19:35:57.333Z,12.59
2018-10-09T19:38:27.893Z,12.53
2018-10-09T19:40:58.515Z,12.46
2018-10-09T19:43:29.019Z,12.48
2018-10-09T19:45:59.619Z,12.58
2018-10-09T19:48:30.758Z,12.57
2018-10-09T19:51:01.149Z,12.53
2018-10-09T19:53:31.354Z,12.45
2018-10-09T19:56:01.953Z,12.40
2018-10-09T19:58:32.136Z,12.38
2018-10-09T20:01:02.242Z,12.49
2018-10-09T20:03:32.428Z,12.41
2018-10-09T20:06:03.352Z,12.43
2018-10-09T20:08:33.536Z,12.33
2018-10-09T20:11:03.527Z,12.26
2018-10-09T20:13:33.566Z,12.24
2018-10-09T20:16:03.680Z,12.18
2018-10-09T20:18:34.012Z,12.18
2018-10-09T20:21:04.404Z,12.11
2018-10-09T20:23:34.723Z,12.08
2018-10-09T20:26:04.851Z,12.09
2018-10-09T20:28:35.219Z,12.11
2018-10-09T20:31:05.516Z,12.06
2018-10-09T20:33:35.386Z,11.96
2018-10-09T20:36:05.508Z,11.89
2018-10-09T20:38:35.980Z,12.01
2018-10-09T20:41:09.064Z,11.92
2018-10-09T20:43:39.262Z,11.84
2018-10-09T20:46:09.545Z,11.94
2018-10-09T20:48:39.729Z,11.80
2018-10-09T20:51:09.756Z,11.94
2018-10-09T20:53:40.026Z,11.92
2018-10-09T20:56:10.098Z,12.09
2018-10-09T20:58:40.242Z,11.87
2018-10-09T21:01:10.448Z,11.93
2018-10-09T21:03:40.651Z,11.86
2018-10-09T21:06:10.843Z,11.77
2018-10-09T21:08:40.863Z,11.80
2018-10-09T21:11:11.205Z,11.71
2018-10-09T21:13:41.175Z,11.60
2018-10-09T21:16:11.559Z,11.56
2018-10-09T21:18:41.531Z,11.47
2018-10-09T21:21:11.557Z,11.38
2018-10-09T21:23:41.708Z,11.51
2018-10-09T21:26:12.324Z,11.51
2018-10-09T21:28:42.745Z,11.48
2018-10-09T21:31:12.915Z,11.46
2018-10-09T21:33:43.108Z,11.47
2018-10-09T21:36:13.283Z,11.35
2018-10-09T21:38:43.224Z,11.35
2018-10-09T21:41:13.253Z,11.29
2018-10-09T21:43:43.210Z,11.23
2018-10-09T21:46:13.350Z,11.31
2018-10-09T21:48:43.347Z,11.20
2018-10-09T21:51:13.411Z,11.25
2018-10-09T21:53:43.532Z,11.22
2018-10-09T21:56:13.640Z,11.17
2018-10-09T21:58:43.541Z,11.16
2018-10-09T22:01:14.018Z,11.08
2018-10-09T22:03:43.990Z,11.02
2018-10-09T22:06:14.800Z,11.01
2018-10-09T22:08:44.787Z,10.99
2018-10-09T22:11:15.829Z,10.98
2018-10-09T22:13:45.647Z,10.91
2018-10-09T22:16:16.032Z,10.90
2018-10-09T22:18:46.117Z,10.92
2018-10-09T22:21:16.458Z,10.94
2018-10-09T22:23:46.405Z,10.89
2018-10-09T22:26:16.564Z,11.00
2018-10-09T22:28:46.537Z,10.96
2018-10-09T22:31:16.532Z,10.85
2018-10-09T22:33:46.498Z,10.85
2018-10-09T22:36:16.569Z,10.88
2018-10-09T22:38:46.583Z,10.75
2018-10-09T22:41:17.924Z,10.72
2018-10-09T22:43:49.102Z,10.71
2018-10-09T22:46:19.344Z,10.66
2018-10-09T22:48:49.284Z,10.61
2018-10-09T22:51:19.589Z,10.57
2018-10-09T22:53:49.680Z,10.59
2018-10-09T22:56:19.545Z,10.60
2018-10-09T22:58:49.443Z,10.65
2018-10-09T23:01:19.680Z,10.56
2018-10-09T23:03:49.585Z,10.52
2018-10-09T23:06:19.674Z,10.52
2018-10-09T23:08:49.772Z,10.46
2018-10-09T23:11:20.076Z,10.50
2018-10-09T23:13:50.005Z,10.65
2018-10-09T23:16:20.096Z,10.54
2018-10-09T23:18:50.045Z,10.47
2018-10-09T23:21:20.273Z,10.45
2018-10-09T23:23:50.029Z,10.56
2018-10-09T23:26:20.234Z,10.50
2018-10-09T23:28:50.139Z,10.46
2018-10-09T23:31:20.661Z,10.41
2018-10-09T23:33:50.541Z,10.41
2018-10-09T23:36:21.181Z,10.38
2018-10-09T23:38:51.190Z,10.34
2018-10-09T23:41:22.012Z,10.32
2018-10-09T23:43:51.881Z,10.24
2018-10-09T23:46:21.986Z,10.24
2018-10-09T23:48:51.775Z,10.20
2018-10-09T23:51:21.623Z,10.22
2018-10-09T23:53:51.376Z,10.39
2018-10-09T23:56:21.260Z,10.33
2018-10-09T23:58:50.964Z,10.37
